createdAt,value
2019-03-22T00:02:10.206Z,74.77
2019-03-22T00:04:43.815Z,74.99
2019-03-22T00:07:17.270Z,75.26
2019-03-22T00:09:49.765Z,75.35
2019-03-22T00:12:23.410Z,75.84
2019-03-22T00:14:55.785Z,76.10
2019-03-22T00:17:28.305Z,76.25
2019-03-22T00:20:00.751Z,76.42
2019-03-22T00:22:32.947Z,76.46
2019-03-22T00:25:07.686Z,77.11
2019-03-22T00:27:40.327Z,77.34
2019-03-22T00:30:13.620Z,77.04
2019-03-22T00:32:46.070Z,77.56
2019-03-22T00:35:18.630Z,77.38
2019-03-22T00:37:51.148Z,77.57
2019-03-22T00:40:23.535Z,77.57
2019-03-22T00:42:55.848Z,77.63
2019-03-22T00:45:28.170Z,78.02
2019-03-22T00:48:00.525Z,78.14
2019-03-22T00:50:32.855Z,78.14
2019-03-22T00:53:05.331Z,78.41
2019-03-22T00:55:37.753Z,78.96
2019-03-22T00:58:10.346Z,78.96
2019-03-22T01:00:42.905Z,79.44
2019-03-22T01:03:15.490Z,79.39
2019-03-22T01:05:49.050Z,79.81
2019-03-22T01:08:22.840Z,79.82
2019-03-22T01:10:55.190Z,79.74
2019-03-22T01:13:27.778Z,79.46
2019-03-22T01:16:00.295Z,79.68
2019-03-22T01:18:33.580Z,79.68
2019-03-22T01:21:05.785Z,79.81
2019-03-22T01:23:38.606Z,79.81
2019-03-22T01:26:11.023Z,80.45
2019-03-22T01:28:43.245Z,80.80
2019-03-22T01:31:15.880Z,80.80
2019-03-22T01:33:48.415Z,80.27
2019-03-22T01:36:20.755Z,79.83
2019-03-22T01:38:53.090Z,80.18
2019-03-22T01:41:25.661Z,80.85
2019-03-22T01:43:58.135Z,80.85
2019-03-22T01:46:30.407Z,80.22
2019-03-22T01:49:02.796Z,80.22
2019-03-22T01:51:35.256Z,80.18
2019-03-22T01:54:07.800Z,80.85
2019-03-22T01:56:40.312Z,80.93
2019-03-22T01:59:12.565Z,80.66
2019-03-22T02:01:44.755Z,81.23
2019-03-22T02:04:17.125Z,81.60
2019-03-22T02:06:49.305Z,81.57
2019-03-22T02:09:21.666Z,81.86
2019-03-22T02:11:53.819Z,82.24
2019-03-22T02:14:26.100Z,82.48
2019-03-22T02:16:58.375Z,82.25
2019-03-22T02:19:30.735Z,82.04
2019-03-22T02:22:03.240Z,81.60
2019-03-22T02:24:35.685Z,81.69
2019-03-22T02:27:08.057Z,81.92
2019-03-22T02:29:40.425Z,81.86
2019-03-22T02:32:13.852Z,81.89
2019-03-22T02:34:46.089Z,81.51
2019-03-22T11:52:58.155Z,67.21
2019-03-22T11:55:30.727Z,67.46
2019-03-22T11:58:03.091Z,67.53
2019-03-22T12:00:35.565Z,67.34
2019-03-22T12:03:08.295Z,67.54
2019-03-22T12:05:40.861Z,67.70
2019-03-22T12:08:13.465Z,67.22
2019-03-22T12:10:45.655Z,66.71
2019-03-22T12:13:18.025Z,66.44
2019-03-22T12:15:50.317Z,66.19
2019-03-22T12:18:22.545Z,66.08
2019-03-22T12:20:56.586Z,65.81
2019-03-22T12:23:29.040Z,65.65
2019-03-22T12:26:01.936Z,65.61
2019-03-22T12:28:34.650Z,65.18
2019-03-22T12:31:07.550Z,65.08
2019-03-22T12:33:40.480Z,65.04
2019-03-22T12:36:12.961Z,65.19
2019-03-22T12:38:45.430Z,64.96
2019-03-22T12:41:17.815Z,65.54
2019-03-22T12:43:50.290Z,65.59
2019-03-22T12:46:23.135Z,65.42
2019-03-22T12:48:55.790Z,65.49
2019-03-22T12:51:28.231Z,64.98
2019-03-22T12:54:01.065Z,65.43
2019-03-22T12:56:34.810Z,65.69
2019-03-22T12:59:07.650Z,66.39
2019-03-22T13:01:40.430Z,66.71
2019-03-22T13:04:12.975Z,67.25
2019-03-22T13:06:45.451Z,67.87
2019-03-22T13:09:17.975Z,67.71
2019-03-22T13:11:50.246Z,67.87
2019-03-22T13:14:22.700Z,68.11
2019-03-22T13:16:54.615Z,68.29
2019-03-22T13:19:27.271Z,69.08
2019-03-22T13:21:59.745Z,69.20
2019-03-22T13:24:32.094Z,68.86
2019-03-22T13:27:04.500Z,68.65
2019-03-22T13:29:36.829Z,68.63
2019-03-22T13:32:09.390Z,68.41
2019-03-22T13:34:41.865Z,68.30
2019-03-22T13:37:14.125Z,68.92
2019-03-22T13:39:46.360Z,69.15
2019-03-22T13:42:18.910Z,69.50
2019-03-22T13:44:51.156Z,70.00
2019-03-22T13:47:23.775Z,70.38
2019-03-22T13:49:56.368Z,70.75
2019-03-22T13:52:28.750Z,70.85
2019-03-22T13:55:01.515Z,70.64
2019-03-22T13:57:33.970Z,70.81
2019-03-22T14:00:15.675Z,70.94
2019-03-22T14:02:48.165Z,70.48
2019-03-22T14:05:20.315Z,70.39
2019-03-22T14:07:52.679Z,70.16
2019-03-22T14:10:32.936Z,70.52
2019-03-22T14:13:06.755Z,70.80
2019-03-22T14:15:38.935Z,70.22
2019-03-22T14:18:11.445Z,69.99
2019-03-22T14:20:44.355Z,70.25
2019-03-22T14:23:16.696Z,70.46
2019-03-22T14:25:49.422Z,70.66
2019-03-22T14:28:21.875Z,70.63
2019-03-22T14:30:54.359Z,70.95
2019-03-22T14:33:26.655Z,71.21
2019-03-22T14:35:59.566Z,71.36
2019-03-22T14:38:32.055Z,71.35
2019-03-22T14:41:04.879Z,71.47
2019-03-22T14:43:37.179Z,71.73
2019-03-22T14:46:09.619Z,71.71
2019-03-22T14:48:43.625Z,71.92
2019-03-22T14:51:16.205Z,71.95
2019-03-22T14:53:49.025Z,71.85
2019-03-22T14:56:21.925Z,72.45
2019-03-22T14:58:54.345Z,72.86
2019-03-22T15:01:27.050Z,72.91
2019-03-22T15:03:59.395Z,73.20
2019-03-22T15:06:31.895Z,73.23
2019-03-22T15:09:06.260Z,73.46
2019-03-22T15:11:39.010Z,73.67
2019-03-22T15:14:29.296Z,73.77
2019-03-22T15:17:12.925Z,74.12
2019-03-22T15:19:47.088Z,74.01
2019-03-22T15:22:27.263Z,74.10
2019-03-22T15:25:17.075Z,74.14
2019-03-22T15:27:51.539Z,74.20
2019-03-22T15:30:43.010Z,74.31
2019-03-22T15:33:20.954Z,74.33
2019-03-22T15:36:13.507Z,74.43
2019-03-22T15:39:03.126Z,74.39
2019-03-22T15:41:37.159Z,74.47
2019-03-22T15:44:09.903Z,74.44
2019-03-22T15:46:42.510Z,74.53
2019-03-22T15:49:15.203Z,74.40
2019-03-22T15:51:48.879Z,74.43
2019-03-22T15:54:21.785Z,74.37
2019-03-22T15:56:54.350Z,74.05
2019-03-22T15:59:26.670Z,73.98
2019-03-22T16:01:59.045Z,74.25
2019-03-22T16:04:31.665Z,74.34
2019-03-22T16:07:04.141Z,74.15
2019-03-22T16:09:36.720Z,74.25
2019-03-22T16:12:09.427Z,74.18
2019-03-22T16:14:42.185Z,73.93
2019-03-22T16:17:14.935Z,74.17
2019-03-22T16:19:47.500Z,74.22
2019-03-22T16:22:20.216Z,74.37
2019-03-22T16:24:52.705Z,74.24
2019-03-22T16:27:25.585Z,73.97
2019-03-22T16:29:58.975Z,73.69
2019-03-22T16:32:31.670Z,73.58
2019-03-22T16:35:05.562Z,73.68
2019-03-22T16:37:38.315Z,73.65
2019-03-22T16:40:12.166Z,74.08
2019-03-22T16:42:45.230Z,74.34
2019-03-22T16:45:33.696Z,74.44
2019-03-22T16:48:06.600Z,74.74
2019-03-22T16:50:40.120Z,75.00
2019-03-22T16:53:12.581Z,75.12
2019-03-22T16:55:45.040Z,75.13
2019-03-22T16:58:17.471Z,75.01
2019-03-22T17:00:50.137Z,75.19
2019-03-22T17:03:22.910Z,75.08
2019-03-22T17:05:55.800Z,75.68
2019-03-22T17:08:28.225Z,76.00
2019-03-22T17:11:00.606Z,75.91
2019-03-22T17:13:32.990Z,75.77
2019-03-22T17:16:05.566Z,75.91
2019-03-22T17:18:39.095Z,75.63
2019-03-22T17:21:11.601Z,75.88
2019-03-22T17:23:43.995Z,76.63
2019-03-22T17:26:16.331Z,77.02
2019-03-22T17:28:48.691Z,77.17
2019-03-22T17:31:21.126Z,77.06
2019-03-22T17:33:53.686Z,77.66
2019-03-22T17:36:26.172Z,78.28
2019-03-22T17:38:58.506Z,77.98
2019-03-22T17:41:30.951Z,78.35
2019-03-22T17:44:03.314Z,78.43
2019-03-22T17:46:35.830Z,78.50
2019-03-22T17:49:08.201Z,77.96
2019-03-22T17:51:40.500Z,77.86
2019-03-22T17:54:12.867Z,78.33
2019-03-22T17:56:45.332Z,78.54
2019-03-22T17:59:17.786Z,78.90
2019-03-22T18:01:50.125Z,79.24
2019-03-22T18:04:24.309Z,79.44
2019-03-22T18:06:56.900Z,79.79
2019-03-22T18:09:29.286Z,80.12
2019-03-22T18:12:01.645Z,79.99
2019-03-22T18:14:33.961Z,79.63
2019-03-22T18:17:06.286Z,79.31
2019-03-22T18:19:38.946Z,80.27
2019-03-22T18:22:11.181Z,79.98
2019-03-22T18:24:43.431Z,79.01
2019-03-22T18:27:15.841Z,79.01
2019-03-22T18:29:47.971Z,79.83
2019-03-22T18:32:20.207Z,79.83
2019-03-22T18:34:52.521Z,79.74
2019-03-22T18:37:25.122Z,79.84
2019-03-22T18:39:57.796Z,79.81
2019-03-22T18:42:30.186Z,79.30
2019-03-22T18:45:02.367Z,79.04
2019-03-22T18:47:35.080Z,79.28
2019-03-22T18:50:09.576Z,79.40
2019-03-22T18:52:43.276Z,79.44
2019-03-22T18:55:15.866Z,79.66
2019-03-22T18:57:48.212Z,79.71
2019-03-22T19:00:20.512Z,79.25
2019-03-22T19:02:52.879Z,79.07
2019-03-22T19:05:25.316Z,78.91
2019-03-22T19:07:57.640Z,78.67
2019-03-22T19:10:30.042Z,78.77
2019-03-22T19:13:02.366Z,78.69
2019-03-22T19:15:34.851Z,78.77
2019-03-22T19:18:07.291Z,78.97
2019-03-22T19:20:40.179Z,78.58
2019-03-22T19:23:12.637Z,78.52
2019-03-22T19:25:45.105Z,78.64
2019-03-22T19:28:17.486Z,78.89
2019-03-22T19:30:51.200Z,78.91
2019-03-22T19:33:24.111Z,78.97
2019-03-22T19:35:56.570Z,78.96
2019-03-22T19:38:28.951Z,78.77
2019-03-22T19:41:01.610Z,79.09
2019-03-22T19:43:34.447Z,78.81
2019-03-22T19:46:06.707Z,78.96
2019-03-22T19:48:39.034Z,79.03
2019-03-22T19:51:11.576Z,79.26
2019-03-22T19:53:44.226Z,79.16
2019-03-22T19:56:16.621Z,79.14
2019-03-22T19:58:48.916Z,79.54
2019-03-22T20:01:21.406Z,79.53
2019-03-22T20:03:53.809Z,79.72
2019-03-22T20:06:26.211Z,79.44
2019-03-22T20:08:58.506Z,79.89
2019-03-22T20:11:31.023Z,80.07
2019-03-22T20:14:03.821Z,80.09
2019-03-22T20:16:35.966Z,80.19
2019-03-22T20:19:08.510Z,80.15
2019-03-22T20:21:41.116Z,80.19
2019-03-22T20:24:13.561Z,80.03
2019-03-22T20:26:46.220Z,79.86
2019-03-22T20:29:18.911Z,79.81
2019-03-22T20:31:51.165Z,79.56
2019-03-22T20:34:23.559Z,79.29
2019-03-22T20:36:56.181Z,79.65
2019-03-22T20:39:28.375Z,79.62
2019-03-22T20:42:00.991Z,79.18
2019-03-22T20:44:34.281Z,78.97
2019-03-22T20:47:06.826Z,78.71
2019-03-22T20:49:39.376Z,78.41
2019-03-22T20:52:11.935Z,78.12
2019-03-22T20:54:44.575Z,78.06
2019-03-22T20:57:17.197Z,77.71
2019-03-22T20:59:49.716Z,77.76
2019-03-22T21:02:22.096Z,77.44
2019-03-22T21:04:55.032Z,77.40
2019-03-22T21:07:27.405Z,77.05
2019-03-22T21:09:59.793Z,77.26
2019-03-22T21:12:32.517Z,76.92
2019-03-22T21:15:06.792Z,76.88
2019-03-22T21:17:39.057Z,76.95
2019-03-22T21:20:11.846Z,76.92
2019-03-22T21:22:44.507Z,76.62
2019-03-22T21:25:16.940Z,76.76
2019-03-22T21:27:50.411Z,76.40
2019-03-22T21:30:22.861Z,76.66
2019-03-22T21:32:55.235Z,76.54
2019-03-22T21:35:36.947Z,76.50
2019-03-22T21:38:10.495Z,76.41
2019-03-22T21:40:35.550Z,76.35
2019-03-22T21:43:07.790Z,76.01
2019-03-22T21:45:40.245Z,75.98
2019-03-22T21:48:12.695Z,76.01
2019-03-22T21:50:45.405Z,76.06
2019-03-22T21:53:17.960Z,76.02
2019-03-22T21:55:50.505Z,75.78
2019-03-22T21:58:22.835Z,75.85
2019-03-22T22:00:55.240Z,75.67
2019-03-22T22:03:27.555Z,75.36
2019-03-22T22:06:00.015Z,75.47
2019-03-22T22:08:32.905Z,75.70
2019-03-22T22:11:05.360Z,75.48
2019-03-22T22:13:37.698Z,75.12
2019-03-22T22:16:10.171Z,74.98
2019-03-22T22:18:42.685Z,74.80
2019-03-22T22:21:16.085Z,74.79
2019-03-22T22:23:48.590Z,74.77
2019-03-22T22:26:21.030Z,74.89
2019-03-22T22:28:53.791Z,74.78
2019-03-22T22:31:26.050Z,74.87
2019-03-22T22:33:59.560Z,75.13
2019-03-22T22:36:32.061Z,74.90
2019-03-22T22:39:06.190Z,74.69
2019-03-22T22:41:40.328Z,74.80
2019-03-22T22:44:12.771Z,74.49
2019-03-22T22:46:45.235Z,74.51
2019-03-22T22:49:17.700Z,74.55
2019-03-22T22:51:49.946Z,74.35
2019-03-22T22:54:22.205Z,74.24
2019-03-22T22:56:54.700Z,74.49
2019-03-22T22:59:26.905Z,74.56
2019-03-22T23:01:59.287Z,74.54
2019-03-22T23:04:32.240Z,74.64
2019-03-22T23:07:04.830Z,74.66
2019-03-22T23:09:37.104Z,75.03
2019-03-22T23:12:09.295Z,75.42
2019-03-22T23:14:41.715Z,75.65
2019-03-22T23:17:14.037Z,76.33
2019-03-22T23:19:46.596Z,76.40
2019-03-22T23:22:18.889Z,76.39
2019-03-22T23:24:51.005Z,76.76
2019-03-22T23:27:24.731Z,77.10
2019-03-22T23:29:56.886Z,77.58
2019-03-22T23:32:29.196Z,77.13
2019-03-22T23:35:01.475Z,77.71
2019-03-22T23:37:34.073Z,78.56
2019-03-22T23:40:07.890Z,78.86
2019-03-22T23:42:41.230Z,78.32
2019-03-22T23:45:13.477Z,78.55
2019-03-22T23:47:45.880Z,79.25
2019-03-22T23:50:18.275Z,79.69
2019-03-22T23:52:50.595Z,80.27
2019-03-22T23:55:22.975Z,79.94
2019-03-22T23:57:55.180Z,80.72
